createdAt,value
2024-01-03T00:00:25.598Z,100453.91
2024-01-03T00:02:54.140Z,100461.78
2024-01-03T00:05:25.671Z,100452.19
2024-01-03T00:07:53.057Z,100461.66
2024-01-03T00:10:48.267Z,100470.84
2024-01-03T00:13:37.037Z,100469.88
2024-01-03T00:16:03.806Z,100470.72
2024-01-03T00:18:34.261Z,100472.31
2024-01-03T00:21:02.283Z,100434.00
2024-01-03T00:24:17.798Z,100424.34
2024-01-03T00:26:45.637Z,100435.38
2024-01-03T00:29:26.076Z,100431.13
2024-01-03T00:31:53.178Z,100443.47
2024-01-03T00:34:23.283Z,100436.22
2024-01-03T00:36:54.675Z,100441.13
2024-01-03T00:39:35.335Z,100383.22
2024-01-03T00:42:02.294Z,100402.50
2024-01-03T00:44:29.118Z,100404.84
2024-01-03T00:46:57.815Z,100397.88
2024-01-03T00:49:27.835Z,100439.69
2024-01-03T00:51:59.203Z,100420.88
2024-01-03T00:54:26.477Z,100434.25
2024-01-03T00:56:54.601Z,100422.97
2024-01-03T00:59:25.548Z,100414.97
2024-01-03T01:01:56.152Z,100400.81
2024-01-03T01:04:22.981Z,100404.72
2024-01-03T01:06:49.789Z,100400.72
2024-01-03T01:09:16.682Z,100384.84
2024-01-03T01:11:43.525Z,100388.16
2024-01-03T01:14:10.273Z,100397.97
2024-01-03T01:16:37.031Z,100396.06
2024-01-03T01:19:03.956Z,100392.31
2024-01-03T01:21:30.810Z,100398.84
2024-01-03T01:23:57.598Z,100397.31
2024-01-03T01:26:24.438Z,100390.53
2024-01-03T01:28:51.284Z,100392.00
2024-01-03T01:31:18.074Z,100380.09
2024-01-03T01:33:45.017Z,100386.41
2024-01-03T01:36:15.930Z,100374.91
2024-01-03T01:38:52.496Z,100371.03
2024-01-03T01:41:23.096Z,100351.16
2024-01-03T01:43:52.668Z,100358.19
2024-01-03T01:46:19.540Z,100380.25
2024-01-03T01:48:47.884Z,100352.63
2024-01-03T01:51:15.601Z,100363.03
2024-01-03T01:53:42.930Z,100370.81
2024-01-03T01:56:15.584Z,100379.75
2024-01-03T01:58:46.003Z,100363.31
2024-01-03T02:03:53.747Z,100347.16
2024-01-03T02:06:22.841Z,100343.53
2024-01-03T02:08:49.656Z,100340.97
2024-01-03T02:11:16.501Z,100352.75
2024-01-03T02:13:47.758Z,100356.97
2024-01-03T02:16:16.214Z,100367.28
2024-01-03T02:18:47.147Z,100389.09
2024-01-03T02:21:15.786Z,100366.44
2024-01-03T02:23:43.250Z,100347.28
2024-01-03T02:26:18.041Z,100349.72
2024-01-03T02:28:52.788Z,100351.03
2024-01-03T02:31:19.607Z,100346.78
2024-01-03T02:33:46.510Z,100351.88
2024-01-03T02:36:13.470Z,100315.03
2024-01-03T02:38:48.470Z,100335.41
2024-01-03T02:41:20.529Z,100333.59
2024-01-03T02:43:49.186Z,100365.44
2024-01-03T02:46:19.860Z,100360.59
2024-01-03T02:48:46.806Z,100371.03
2024-01-03T02:51:23.248Z,100351.38
2024-01-03T02:53:54.191Z,100337.84
2024-01-03T02:56:21.243Z,100342.56
2024-01-03T02:58:48.082Z,100359.78
2024-01-03T03:01:17.845Z,100356.00
2024-01-03T03:03:44.775Z,100363.50
2024-01-03T03:06:11.775Z,100343.41
2024-01-03T03:08:38.885Z,100355.50
2024-01-03T03:11:09.818Z,100361.31
2024-01-03T03:13:38.851Z,100343.50
2024-01-03T03:16:07.858Z,100350.31
2024-01-03T03:18:37.776Z,100328.50
2024-01-03T03:21:04.943Z,100333.94
2024-01-03T03:23:32.185Z,100346.78
2024-01-03T03:26:01.334Z,100339.03
2024-01-03T03:28:34.319Z,100344.59
2024-01-03T03:31:01.082Z,100356.50
2024-01-03T03:33:28.073Z,100349.44
2024-01-03T03:35:54.980Z,100353.72
2024-01-03T03:38:24.804Z,100356.28
2024-01-03T03:40:51.559Z,100368.50
2024-01-03T03:43:18.338Z,100363.06
2024-01-03T03:45:45.122Z,100362.06
2024-01-03T03:48:12.296Z,100354.34
2024-01-03T03:50:39.465Z,100345.72
2024-01-03T03:53:08.428Z,100367.41
2024-01-03T03:55:35.232Z,100358.56
2024-01-03T03:58:01.959Z,100360.03
2024-01-03T04:00:32.423Z,100341.00
2024-01-03T04:02:59.664Z,100344.41
2024-01-03T04:05:27.368Z,100348.75
2024-01-03T04:07:54.174Z,100347.41
2024-01-03T04:10:23.443Z,100355.16
2024-01-03T04:12:50.325Z,100350.19
2024-01-03T04:15:17.158Z,100349.25
2024-01-03T04:17:44.026Z,100349.00
2024-01-03T04:20:10.945Z,100346.81
2024-01-03T04:22:44.027Z,100357.72
2024-01-03T04:25:15.820Z,100359.53
2024-01-03T04:27:42.691Z,100351.03
2024-01-03T04:30:09.530Z,100350.56
2024-01-03T04:32:36.345Z,100350.06
2024-01-03T04:35:03.178Z,100350.94
2024-01-03T04:37:33.923Z,100346.31
2024-01-03T04:40:00.673Z,100353.94
2024-01-03T04:42:27.669Z,100334.31
2024-01-03T04:44:54.579Z,100346.66
2024-01-03T04:47:21.452Z,100351.41
2024-01-03T04:49:48.370Z,100353.69
2024-01-03T04:52:15.211Z,100339.88
2024-01-03T04:54:42.050Z,100341.34
2024-01-03T04:57:09.198Z,100362.78
2024-01-03T04:59:38.642Z,100347.16
2024-01-03T05:02:05.489Z,100336.88
2024-01-03T05:04:32.242Z,100346.56
2024-01-03T05:06:59.090Z,100360.84
2024-01-03T05:09:25.845Z,100364.63
2024-01-03T05:11:52.715Z,100376.38
2024-01-03T05:14:19.584Z,100342.78
2024-01-03T05:16:46.451Z,100366.91
2024-01-03T05:19:13.320Z,100372.84
2024-01-03T05:21:51.630Z,100369.31
2024-01-03T05:24:22.796Z,100373.22
2024-01-03T05:26:53.076Z,100380.50
2024-01-03T05:29:19.994Z,100369.19
2024-01-03T05:31:46.779Z,100363.41
2024-01-03T05:34:13.665Z,100366.41
2024-01-03T05:36:40.519Z,100367.41
2024-01-03T05:39:07.330Z,100367.41
2024-01-03T05:41:34.111Z,100376.63
2024-01-03T05:44:02.853Z,100373.00
2024-01-03T05:46:33.448Z,100357.47
2024-01-03T05:49:00.454Z,100373.97
2024-01-03T05:51:29.897Z,100384.88
2024-01-03T05:53:57.098Z,100404.72
2024-01-03T05:56:23.938Z,100403.50
2024-01-03T05:58:50.749Z,100396.72
2024-01-03T06:01:17.550Z,100426.94
2024-01-03T06:03:44.832Z,100422.69
2024-01-03T06:06:12.176Z,100407.31
2024-01-03T06:08:39.141Z,100403.91
2024-01-03T06:11:06.043Z,100419.53
2024-01-03T06:13:32.752Z,100422.19
2024-01-03T06:16:02.249Z,100384.09
2024-01-03T06:18:29.192Z,100408.63
2024-01-03T06:20:57.747Z,100393.81
2024-01-03T06:23:28.411Z,100401.34
2024-01-03T06:25:55.864Z,100414.44
2024-01-03T06:28:23.368Z,100415.31
2024-01-03T06:30:50.125Z,100407.03
2024-01-03T06:33:17.190Z,100405.84
2024-01-03T06:35:45.845Z,100399.31
2024-01-03T06:38:12.828Z,100414.91
2024-01-03T06:40:40.063Z,100406.91
2024-01-03T06:43:09.130Z,100418.06
2024-01-03T06:45:35.866Z,100419.41
2024-01-03T06:48:03.845Z,100410.41
2024-01-03T06:50:30.702Z,100402.28
2024-01-03T06:52:57.496Z,100418.56
2024-01-03T06:55:24.273Z,100427.53
2024-01-03T06:57:51.170Z,100411.03
2024-01-03T07:00:18.469Z,100396.72
2024-01-03T07:02:45.291Z,100418.03
2024-01-03T07:05:12.223Z,100408.69
2024-01-03T07:07:38.991Z,100391.22
2024-01-03T07:10:06.415Z,100398.47
2024-01-03T07:12:36.127Z,100382.00
2024-01-03T07:15:06.222Z,100412.19
2024-01-03T07:17:33.300Z,100396.06
2024-01-03T07:20:00.306Z,100418.72
2024-01-03T07:22:27.177Z,100422.13
2024-01-03T07:24:53.911Z,100423.09
2024-01-03T07:27:20.654Z,100428.91
2024-01-03T07:29:47.721Z,100415.53
2024-01-03T07:32:14.675Z,100428.88
2024-01-03T07:34:41.487Z,100423.53
2024-01-03T07:37:08.893Z,100437.09
2024-01-03T07:39:35.776Z,100424.19
2024-01-03T07:42:02.601Z,100431.88
2024-01-03T07:44:29.459Z,100430.28
2024-01-03T07:46:56.177Z,100410.06
2024-01-03T07:49:27.073Z,100408.88
2024-01-03T07:51:53.922Z,100406.22
2024-01-03T07:54:23.620Z,100380.50
2024-01-03T07:56:50.499Z,100409.56
2024-01-03T07:59:17.426Z,100409.44
2024-01-03T08:01:44.334Z,100402.16
2024-01-03T08:04:11.172Z,100405.53
2024-01-03T08:06:38.181Z,100405.25
2024-01-03T08:09:12.843Z,100392.78
2024-01-03T08:11:39.829Z,100399.88
2024-01-03T08:14:09.687Z,100383.97
2024-01-03T08:16:36.415Z,100376.72
2024-01-03T08:19:03.238Z,100383.75
2024-01-03T08:21:30.156Z,100393.59
2024-01-03T08:23:57.056Z,100379.09
2024-01-03T08:26:23.918Z,100389.78
2024-01-03T08:28:50.801Z,100399.97
2024-01-03T08:31:19.995Z,100384.06
2024-01-03T08:33:47.369Z,100380.53
2024-01-03T08:36:15.939Z,100390.38
2024-01-03T08:38:45.718Z,100384.16
2024-01-03T08:41:14.253Z,100364.78
2024-01-03T08:43:41.025Z,100376.31
2024-01-03T08:46:09.455Z,100378.34
2024-01-03T08:48:43.200Z,100375.31
2024-01-03T08:51:13.985Z,100367.56
2024-01-03T08:53:47.416Z,100353.63
2024-01-03T08:56:19.714Z,100348.13
2024-01-03T08:58:48.438Z,100361.13
2024-01-03T09:01:20.089Z,100356.72
2024-01-03T09:03:48.502Z,100365.28
2024-01-03T09:06:22.700Z,100365.28
2024-01-03T09:08:53.177Z,100362.41
2024-01-03T09:11:24.465Z,100344.47
2024-01-03T09:13:51.248Z,100355.53
2024-01-03T09:16:20.097Z,100367.81
2024-01-03T09:18:51.371Z,100378.31
2024-01-03T09:21:18.346Z,100366.06
2024-01-03T09:23:48.226Z,100366.91
2024-01-03T09:26:18.106Z,100376.66
2024-01-03T09:28:44.987Z,100372.81
2024-01-03T09:31:11.874Z,100374.28
2024-01-03T09:33:40.215Z,100353.94
2024-01-03T09:36:24.004Z,100354.84
2024-01-03T09:38:56.641Z,100384.13
2024-01-03T09:41:24.200Z,100378.13
2024-01-03T09:43:56.055Z,100365.16
2024-01-03T09:46:23.617Z,100386.47
2024-01-03T09:48:51.098Z,100385.03
2024-01-03T09:51:18.271Z,100380.50
2024-01-03T09:53:45.751Z,100365.22
2024-01-03T09:56:12.884Z,100369.56
2024-01-03T09:58:40.404Z,100378.31
2024-01-03T10:01:07.323Z,100375.97
2024-01-03T10:03:34.103Z,100390.03
2024-01-03T10:06:17.488Z,100381.25
2024-01-03T10:09:03.308Z,100381.13
2024-01-03T10:11:30.908Z,100378.59
2024-01-03T10:14:14.287Z,100381.13
2024-01-03T10:16:41.346Z,100361.97
2024-01-03T10:19:10.113Z,100392.72
2024-01-03T10:21:38.888Z,100369.31
2024-01-03T10:24:05.866Z,100385.31
2024-01-03T10:26:35.826Z,100378.91
2024-01-03T10:29:19.369Z,100370.47
2024-01-03T10:31:49.444Z,100345.66
2024-01-03T10:34:30.272Z,100352.25
2024-01-03T10:36:57.371Z,100369.63
2024-01-03T10:39:25.614Z,100364.91
2024-01-03T10:41:54.197Z,100360.22
2024-01-03T10:44:21.465Z,100359.28
2024-01-03T10:46:50.036Z,100332.88
2024-01-03T10:49:17.709Z,100336.28
2024-01-03T10:51:50.251Z,100355.88
2024-01-03T10:54:20.914Z,100349.53
2024-01-03T10:56:54.108Z,100351.03
2024-01-03T10:59:29.881Z,100363.03
2024-01-03T11:02:22.140Z,100362.31
2024-01-03T11:05:15.391Z,100356.09
2024-01-03T11:07:52.903Z,100352.03
2024-01-03T11:10:51.824Z,100349.28
2024-01-03T11:13:32.683Z,100326.22
2024-01-03T11:16:01.576Z,100335.97
2024-01-03T11:18:43.975Z,100336.72
2024-01-03T11:21:25.534Z,100323.69
2024-01-03T11:23:55.482Z,100312.34
2024-01-03T11:26:55.759Z,100336.19
2024-01-03T11:29:38.911Z,100329.84
2024-01-03T11:32:07.632Z,100306.19
2024-01-03T11:34:50.341Z,100302.47
2024-01-03T11:37:23.558Z,100306.31
2024-01-03T11:39:51.209Z,100299.22
2024-01-03T11:42:45.819Z,100310.84
2024-01-03T11:45:14.196Z,100294.06
2024-01-03T11:47:44.173Z,100295.88
2024-01-03T11:50:12.915Z,100300.56
2024-01-03T11:52:43.388Z,100293.50
2024-01-03T11:55:12.193Z,100286.41
2024-01-03T11:57:45.209Z,100287.56
2024-01-03T12:00:17.902Z,100287.38
2024-01-03T12:02:55.389Z,100289.63
2024-01-03T12:05:27.548Z,100265.44
2024-01-03T12:07:58.599Z,100276.75
2024-01-03T12:10:26.847Z,100262.53
2024-01-03T12:12:54.695Z,100284.53
2024-01-03T12:18:06.856Z,100277.44
2024-01-03T12:20:34.544Z,100262.09
2024-01-03T12:23:16.882Z,100271.72
2024-01-03T12:25:44.513Z,100260.13
2024-01-03T12:28:11.937Z,100243.63
2024-01-03T12:30:46.206Z,100240.47
2024-01-03T12:33:15.388Z,100241.84
2024-01-03T12:35:48.295Z,100235.53
2024-01-03T12:38:16.596Z,100239.72
2024-01-03T12:40:46.407Z,100276.31
2024-01-03T12:43:24.792Z,100230.38
2024-01-03T12:45:56.624Z,100231.94
2024-01-03T12:48:28.410Z,100219.81
2024-01-03T12:51:00.248Z,100207.81
2024-01-03T12:53:27.151Z,100234.72
2024-01-03T12:55:54.083Z,100240.56
2024-01-03T12:58:21.541Z,100230.34
2024-01-03T13:00:48.501Z,100224.34
2024-01-03T13:03:16.059Z,100241.97
2024-01-03T13:05:43.511Z,100221.13
2024-01-03T13:08:13.038Z,100217.34
2024-01-03T13:10:40.165Z,100210.22
2024-01-03T13:13:07.775Z,100186.59
2024-01-03T13:15:44.039Z,100220.78
2024-01-03T13:18:11.794Z,100244.63
2024-01-03T13:20:38.837Z,100229.94
2024-01-03T13:23:08.164Z,100209.50
2024-01-03T13:25:45.422Z,100230.81
2024-01-03T13:28:14.266Z,100196.41
2024-01-03T13:30:41.107Z,100229.81
2024-01-03T13:33:08.502Z,100187.75
2024-01-03T13:35:36.191Z,100221.63
2024-01-03T13:38:05.330Z,100179.53
2024-01-03T13:40:39.788Z,100206.00
2024-01-03T13:43:12.350Z,100214.41
2024-01-03T13:45:40.553Z,100212.03
2024-01-03T13:48:07.687Z,100207.56
2024-01-03T13:50:34.601Z,100192.81
2024-01-03T13:53:06.234Z,100195.38
2024-01-03T13:55:57.148Z,100213.38
2024-01-03T13:58:28.046Z,100194.16
2024-01-03T14:00:54.946Z,100190.44
2024-01-03T14:03:21.912Z,100183.81
2024-01-03T14:05:50.540Z,100197.69
2024-01-03T14:08:17.525Z,100201.59
2024-01-03T14:10:53.272Z,100212.09
2024-01-03T14:13:24.460Z,100201.06
2024-01-03T14:15:51.266Z,100170.81
2024-01-03T14:18:22.151Z,100214.28
2024-01-03T14:20:50.310Z,100207.59
2024-01-03T14:23:17.247Z,100179.66
2024-01-03T14:25:45.233Z,100195.50
2024-01-03T14:28:11.996Z,100194.00
2024-01-03T14:30:41.624Z,100197.53
2024-01-03T14:33:08.659Z,100185.75
2024-01-03T14:35:35.793Z,100195.53
2024-01-03T14:38:02.757Z,100164.38
2024-01-03T14:40:31.885Z,100191.47
2024-01-03T14:42:58.675Z,100196.88
2024-01-03T14:45:25.454Z,100167.03
2024-01-03T14:47:52.322Z,100164.50
2024-01-03T14:50:24.236Z,100180.66
2024-01-03T14:52:53.862Z,100192.44
2024-01-03T14:55:23.762Z,100149.13
2024-01-03T14:57:50.662Z,100183.16
2024-01-03T15:00:17.651Z,100181.97
2024-01-03T15:02:55.287Z,100169.44
2024-01-03T15:05:32.359Z,100196.34
2024-01-03T15:07:59.339Z,100213.66
2024-01-03T15:10:26.147Z,100173.38
2024-01-03T15:12:55.525Z,100194.25
2024-01-03T15:15:25.485Z,100169.25
2024-01-03T15:17:52.829Z,100176.63
2024-01-03T15:20:19.758Z,100181.78
2024-01-03T15:22:48.538Z,100209.53
2024-01-03T15:25:15.344Z,100179.13
2024-01-03T15:27:45.869Z,100142.97
2024-01-03T15:30:16.348Z,100182.03
2024-01-03T15:32:43.515Z,100150.91
2024-01-03T15:35:10.617Z,100171.47
2024-01-03T15:37:37.572Z,100181.59
2024-01-03T15:40:06.090Z,100164.66
2024-01-03T15:42:32.923Z,100180.47
2024-01-03T15:45:00.438Z,100170.25
2024-01-03T15:47:28.307Z,100142.06
2024-01-03T15:49:56.674Z,100176.94
2024-01-03T15:52:29.283Z,100164.28
2024-01-03T15:54:58.205Z,100163.06
2024-01-03T15:57:25.743Z,100128.91
2024-01-03T15:59:52.596Z,100140.41
2024-01-03T16:02:25.103Z,100125.28
2024-01-03T16:04:57.049Z,100129.50
2024-01-03T16:07:28.841Z,100155.34
2024-01-03T16:09:55.674Z,100164.38
2024-01-03T16:12:22.955Z,100169.06
2024-01-03T16:14:50.327Z,100160.09
2024-01-03T16:17:17.374Z,100176.41
2024-01-03T16:19:45.760Z,100154.44
2024-01-03T16:22:14.310Z,100155.13
2024-01-03T16:24:41.638Z,100152.78
2024-01-03T16:27:09.031Z,100150.00
2024-01-03T16:29:38.769Z,100150.84
2024-01-03T16:32:06.329Z,100138.16
2024-01-03T16:34:33.347Z,100141.88
2024-01-03T16:37:09.644Z,100157.63
2024-01-03T16:39:39.330Z,100138.72
2024-01-03T16:42:09.532Z,100177.47
2024-01-03T16:44:39.201Z,100173.53
2024-01-03T16:47:08.936Z,100177.31
2024-01-03T16:49:35.896Z,100164.41
2024-01-03T16:52:10.254Z,100141.47
2024-01-03T16:54:38.894Z,100122.88
2024-01-03T16:57:06.061Z,100145.25
2024-01-03T16:59:32.883Z,100108.69
2024-01-03T17:01:59.670Z,100121.91
2024-01-03T17:04:29.201Z,100170.28
2024-01-03T17:06:56.622Z,100150.72
2024-01-03T17:09:23.649Z,100155.50
2024-01-03T17:11:50.848Z,100112.84
2024-01-03T17:14:17.752Z,100116.09
2024-01-03T17:16:51.119Z,100130.44
2024-01-03T17:19:19.005Z,100144.53
2024-01-03T17:21:45.994Z,100127.06
2024-01-03T17:24:13.023Z,100121.00
2024-01-03T17:26:40.676Z,100138.88
2024-01-03T17:29:08.315Z,100113.56
2024-01-03T17:31:35.254Z,100141.16
2024-01-03T17:34:02.734Z,100113.19
2024-01-03T17:36:29.650Z,100112.22
2024-01-03T17:39:03.116Z,100144.59
2024-01-03T17:41:30.504Z,100159.25
2024-01-03T17:43:58.969Z,100162.94
2024-01-03T17:46:32.906Z,100159.84
2024-01-03T17:49:11.308Z,100118.47
2024-01-03T17:51:39.971Z,100156.19
2024-01-03T17:54:06.991Z,100137.59
2024-01-03T17:56:33.950Z,100149.97
2024-01-03T17:59:00.929Z,100123.94
2024-01-03T18:01:35.665Z,100124.91
2024-01-03T18:04:07.037Z,100088.19
2024-01-03T18:06:39.333Z,100113.69
2024-01-03T18:09:06.548Z,100137.72
2024-01-03T18:11:33.477Z,100148.91
2024-01-03T18:14:01.606Z,100105.56
2024-01-03T18:16:28.489Z,100090.91
2024-01-03T18:18:56.441Z,100122.72
2024-01-03T18:21:25.870Z,100100.66
2024-01-03T18:23:52.811Z,100118.13
2024-01-03T18:26:22.295Z,100136.28
2024-01-03T18:28:49.691Z,100132.31
2024-01-03T18:31:16.765Z,100137.66
2024-01-03T18:33:48.749Z,100126.13
2024-01-03T18:36:17.407Z,100085.88
2024-01-03T18:38:44.792Z,100104.84
2024-01-03T18:41:11.567Z,100108.94
2024-01-03T18:43:38.381Z,100133.72
2024-01-03T18:46:05.423Z,100130.34
2024-01-03T18:48:32.503Z,100122.44
2024-01-03T18:50:59.371Z,100118.66
2024-01-03T18:53:26.215Z,100118.66
2024-01-03T18:55:53.074Z,100121.03
2024-01-03T18:58:19.971Z,100115.44
2024-01-03T19:00:48.919Z,100098.28
2024-01-03T19:03:17.708Z,100094.03
2024-01-03T19:05:44.681Z,100106.84
2024-01-03T19:08:11.668Z,100145.31
2024-01-03T19:10:38.558Z,100156.72
2024-01-03T19:13:06.573Z,100151.50
2024-01-03T19:15:33.613Z,100154.31
2024-01-03T19:18:00.548Z,100152.75
2024-01-03T19:20:27.590Z,100134.47
2024-01-03T19:22:54.352Z,100137.13
2024-01-03T19:25:21.131Z,100140.22
2024-01-03T19:27:52.221Z,100123.63
2024-01-03T19:30:19.057Z,100136.84
2024-01-03T19:32:45.912Z,100104.44
2024-01-03T19:35:12.898Z,100136.56
2024-01-03T19:37:39.792Z,100136.13
2024-01-03T19:40:07.346Z,100136.13
2024-01-03T19:42:34.149Z,100131.06
2024-01-03T19:45:11.950Z,100141.63
2024-01-03T19:47:39.576Z,100155.72
2024-01-03T19:50:09.561Z,100174.84
2024-01-03T19:52:36.366Z,100162.19
2024-01-03T19:55:06.033Z,100163.72
2024-01-03T19:57:34.102Z,100144.09
2024-01-03T20:00:01.017Z,100172.84
2024-01-03T20:02:28.144Z,100175.38
2024-01-03T20:04:54.983Z,100163.25
2024-01-03T20:07:21.790Z,100185.75
2024-01-03T20:09:48.650Z,100180.09
2024-01-03T20:12:16.388Z,100161.75
2024-01-03T20:14:43.306Z,100131.13
2024-01-03T20:17:10.570Z,100147.22
2024-01-03T20:19:37.416Z,100174.34
2024-01-03T20:22:04.617Z,100158.56
2024-01-03T20:24:36.390Z,100171.78
2024-01-03T20:27:06.203Z,100174.59
2024-01-03T20:29:33.293Z,100172.00
2024-01-03T20:32:02.977Z,100175.66
2024-01-03T20:34:29.971Z,100181.00
2024-01-03T20:36:56.946Z,100171.09
2024-01-03T20:39:23.685Z,100173.03
2024-01-03T20:41:50.480Z,100166.00
2024-01-03T20:44:17.509Z,100165.09
2024-01-03T20:46:44.390Z,100146.13
2024-01-03T20:49:11.331Z,100140.59
2024-01-03T20:51:38.172Z,100138.47
2024-01-03T20:54:04.986Z,100129.34
2024-01-03T20:56:34.087Z,100104.56
2024-01-03T20:59:00.893Z,100113.28
2024-01-03T21:01:30.518Z,100110.63
2024-01-03T21:04:00.708Z,100146.94
2024-01-03T21:06:28.326Z,100142.25
2024-01-03T21:09:01.606Z,100112.94
2024-01-03T21:11:29.262Z,100120.06
2024-01-03T21:14:06.269Z,100129.75
2024-01-03T21:16:34.069Z,100143.69
2024-01-03T21:19:01.831Z,100149.41
2024-01-03T21:21:32.158Z,100119.72
2024-01-03T21:23:59.004Z,100123.09
2024-01-03T21:26:26.063Z,100112.94
2024-01-03T21:28:53.290Z,100120.44
2024-01-03T21:31:26.186Z,100127.19
2024-01-03T21:33:53.211Z,100112.69
2024-01-03T21:36:20.063Z,100126.81
2024-01-03T21:38:46.841Z,100106.44
2024-01-03T21:41:14.138Z,100112.47
2024-01-03T21:43:52.693Z,100113.72
2024-01-03T21:46:22.778Z,100127.97
2024-01-03T21:48:56.024Z,100118.13
2024-01-03T21:51:22.990Z,100128.25
2024-01-03T21:53:49.782Z,100115.88
2024-01-03T21:56:16.614Z,100107.97
2024-01-03T21:58:43.368Z,100106.19
2024-01-03T22:01:10.165Z,100107.72
2024-01-03T22:03:37.050Z,100083.84
2024-01-03T22:06:07.381Z,100102.97
2024-01-03T22:08:35.317Z,100094.25
2024-01-03T22:11:08.367Z,100070.19
2024-01-03T22:13:35.116Z,100086.97
2024-01-03T22:16:01.953Z,100073.28
2024-01-03T22:18:31.883Z,100080.63
2024-01-03T22:20:58.809Z,100076.53
2024-01-03T22:23:25.556Z,100066.31
2024-01-03T22:25:59.010Z,100024.22
2024-01-03T22:28:25.753Z,100035.53
2024-01-03T22:31:01.977Z,100051.53
2024-01-03T22:33:29.301Z,100037.75
2024-01-03T22:36:08.057Z,100030.91
2024-01-03T22:38:36.059Z,100035.41
2024-01-03T22:41:02.920Z,100026.69
2024-01-03T22:43:30.899Z,100038.78
2024-01-03T22:45:57.780Z,100016.56
2024-01-03T22:48:33.891Z,100024.47
2024-01-03T22:51:01.329Z,100008.31
2024-01-03T22:53:28.089Z,99999.59
2024-01-03T22:55:56.863Z,100018.75
2024-01-03T22:58:32.210Z,100009.28
2024-01-03T23:01:00.558Z,99985.22
2024-01-03T23:03:27.372Z,99979.31
2024-01-03T23:05:57.533Z,100008.91
2024-01-03T23:08:24.303Z,99979.75
2024-01-03T23:10:54.409Z,100000.75
2024-01-03T23:13:21.202Z,99986.81
2024-01-03T23:15:48.532Z,100005.78
2024-01-03T23:18:19.986Z,100009.16
2024-01-03T23:20:49.514Z,100002.13
2024-01-03T23:23:16.373Z,100002.00
2024-01-03T23:25:43.179Z,99997.91
2024-01-03T23:28:13.824Z,99991.44
2024-01-03T23:30:46.924Z,99979.09
2024-01-03T23:33:13.988Z,99989.13
2024-01-03T23:35:43.725Z,99983.63
2024-01-03T23:38:11.214Z,99993.75
2024-01-03T23:40:40.650Z,99962.06
2024-01-03T23:43:07.454Z,99993.03
2024-01-03T23:45:35.686Z,99958.84
2024-01-03T23:48:02.537Z,99973.47
2024-01-03T23:50:29.436Z,99969.78
2024-01-03T23:52:56.297Z,99989.72
2024-01-03T23:55:25.873Z,100005.75
2024-01-03T23:57:56.573Z,100009.38
